sensor_id;sensor_type;location;lat;lon;timestamp;temperature;humidity
39493;DHT22;25176;51.060;3.720;2023-09-07T00:02:13;23.30;81.30
39493;DHT22;25176;51.060;3.720;2023-09-07T00:04:39;23.20;82.00
39493;DHT22;25176;51.060;3.720;2023-09-07T00:07:04;23.00;82.70
39493;DHT22;25176;51.060;3.720;2023-09-07T00:09:30;22.90;82.60
39493;DHT22;25176;51.060;3.720;2023-09-07T00:11:55;22.90;82.80
39493;DHT22;25176;51.060;3.720;2023-09-07T00:14:21;22.90;82.90
39493;DHT22;25176;51.060;3.720;2023-09-07T00:16:46;23.00;82.40
39493;DHT22;25176;51.060;3.720;2023-09-07T00:19:12;23.10;82.20
39493;DHT22;25176;51.060;3.720;2023-09-07T00:21:37;22.90;83.20
39493;DHT22;25176;51.060;3.720;2023-09-07T00:24:03;22.80;82.80
39493;DHT22;25176;51.060;3.720;2023-09-07T00:26:30;22.80;83.50
39493;DHT22;25176;51.060;3.720;2023-09-07T00:28:56;22.80;83.00
39493;DHT22;25176;51.060;3.720;2023-09-07T00:31:22;22.70;83.70
39493;DHT22;25176;51.060;3.720;2023-09-07T00:33:47;22.60;84.30
39493;DHT22;25176;51.060;3.720;2023-09-07T00:36:13;22.50;83.90
39493;DHT22;25176;51.060;3.720;2023-09-07T00:38:38;22.40;84.50
39493;DHT22;25176;51.060;3.720;2023-09-07T00:41:04;22.40;84.90
39493;DHT22;25176;51.060;3.720;2023-09-07T00:43:29;22.30;85.40
39493;DHT22;25176;51.060;3.720;2023-09-07T00:45:55;22.30;85.10
39493;DHT22;25176;51.060;3.720;2023-09-07T00:48:21;22.30;85.50
39493;DHT22;25176;51.060;3.720;2023-09-07T00:50:46;22.30;85.60
39493;DHT22;25176;51.060;3.720;2023-09-07T00:53:14;22.30;85.50
39493;DHT22;25176;51.060;3.720;2023-09-07T00:55:39;22.30;86.10
39493;DHT22;25176;51.060;3.720;2023-09-07T00:58:05;22.10;86.50
39493;DHT22;25176;51.060;3.720;2023-09-07T01:00:31;22.00;87.10
39493;DHT22;25176;51.060;3.720;2023-09-07T01:02:57;22.00;87.40
39493;DHT22;25176;51.060;3.720;2023-09-07T01:05:24;22.00;88.00
39493;DHT22;25176;51.060;3.720;2023-09-07T01:07:55;22.00;87.50
39493;DHT22;25176;51.060;3.720;2023-09-07T01:10:22;21.90;88.70
39493;DHT22;25176;51.060;3.720;2023-09-07T01:12:48;21.90;88.60
39493;DHT22;25176;51.060;3.720;2023-09-07T01:15:14;21.80;89.00
39493;DHT22;25176;51.060;3.720;2023-09-07T01:17:39;21.70;89.50
39493;DHT22;25176;51.060;3.720;2023-09-07T01:20:06;21.80;89.50
39493;DHT22;25176;51.060;3.720;2023-09-07T01:22:35;21.70;89.70
39493;DHT22;25176;51.060;3.720;2023-09-07T01:25:00;21.70;89.80
39493;DHT22;25176;51.060;3.720;2023-09-07T01:27:27;21.70;89.90
39493;DHT22;25176;51.060;3.720;2023-09-07T01:29:52;21.70;90.00
39493;DHT22;25176;51.060;3.720;2023-09-07T01:32:18;21.80;90.10
39493;DHT22;25176;51.060;3.720;2023-09-07T01:34:43;21.80;89.90
39493;DHT22;25176;51.060;3.720;2023-09-07T01:37:09;21.70;90.10
39493;DHT22;25176;51.060;3.720;2023-09-07T01:39:34;21.70;90.40
39493;DHT22;25176;51.060;3.720;2023-09-07T01:42:00;21.50;90.70
39493;DHT22;25176;51.060;3.720;2023-09-07T01:44:25;21.40;90.90
39493;DHT22;25176;51.060;3.720;2023-09-07T01:46:52;21.30;91.20
39493;DHT22;25176;51.060;3.720;2023-09-07T01:49:17;21.20;91.50
39493;DHT22;25176;51.060;3.720;2023-09-07T01:51:43;21.10;91.80
39493;DHT22;25176;51.060;3.720;2023-09-07T01:54:08;21.20;92.00
39493;DHT22;25176;51.060;3.720;2023-09-07T01:56:35;21.20;91.80
39493;DHT22;25176;51.060;3.720;2023-09-07T01:59:00;21.20;92.10
39493;DHT22;25176;51.060;3.720;2023-09-07T02:01:27;21.20;92.20
39493;DHT22;25176;51.060;3.720;2023-09-07T02:03:54;21.20;92.10
39493;DHT22;25176;51.060;3.720;2023-09-07T02:06:20;21.00;92.60
39493;DHT22;25176;51.060;3.720;2023-09-07T02:08:46;20.90;92.90
39493;DHT22;25176;51.060;3.720;2023-09-07T02:11:12;21.00;92.90
39493;DHT22;25176;51.060;3.720;2023-09-07T02:13:37;21.10;92.90
39493;DHT22;25176;51.060;3.720;2023-09-07T02:16:03;21.10;93.10
39493;DHT22;25176;51.060;3.720;2023-09-07T02:18:29;21.10;93.20
39493;DHT22;25176;51.060;3.720;2023-09-07T02:21:00;21.10;93.00
39493;DHT22;25176;51.060;3.720;2023-09-07T02:23:26;21.10;93.30
39493;DHT22;25176;51.060;3.720;2023-09-07T02:25:51;21.10;93.30
39493;DHT22;25176;51.060;3.720;2023-09-07T02:28:16;21.20;93.30
39493;DHT22;25176;51.060;3.720;2023-09-07T02:30:42;21.20;93.10
39493;DHT22;25176;51.060;3.720;2023-09-07T02:33:08;21.20;93.20
39493;DHT22;25176;51.060;3.720;2023-09-07T02:35:36;21.20;93.30
39493;DHT22;25176;51.060;3.720;2023-09-07T02:38:01;21.00;93.50
39493;DHT22;25176;51.060;3.720;2023-09-07T02:40:27;20.90;93.90
39493;DHT22;25176;51.060;3.720;2023-09-07T02:42:52;21.00;94.00
39493;DHT22;25176;51.060;3.720;2023-09-07T02:45:18;21.00;94.10
39493;DHT22;25176;51.060;3.720;2023-09-07T02:47:43;21.00;94.00
39493;DHT22;25176;51.060;3.720;2023-09-07T02:50:09;20.90;94.10
39493;DHT22;25176;51.060;3.720;2023-09-07T02:52:34;20.90;94.30
39493;DHT22;25176;51.060;3.720;2023-09-07T02:55:00;20.90;94.60
39493;DHT22;25176;51.060;3.720;2023-09-07T02:57:25;20.80;94.70
39493;DHT22;25176;51.060;3.720;2023-09-07T02:59:52;20.70;95.00
39493;DHT22;25176;51.060;3.720;2023-09-07T03:02:17;20.70;95.10
39493;DHT22;25176;51.060;3.720;2023-09-07T03:04:42;20.50;95.60
39493;DHT22;25176;51.060;3.720;2023-09-07T03:07:08;20.50;95.90
39493;DHT22;25176;51.060;3.720;2023-09-07T03:09:34;20.50;96.20
39493;DHT22;25176;51.060;3.720;2023-09-07T03:12:00;20.40;96.30
39493;DHT22;25176;51.060;3.720;2023-09-07T03:14:25;20.50;96.30
39493;DHT22;25176;51.060;3.720;2023-09-07T03:16:51;20.60;96.60
39493;DHT22;25176;51.060;3.720;2023-09-07T03:19:16;20.70;96.20
39493;DHT22;25176;51.060;3.720;2023-09-07T03:21:42;20.80;95.90
39493;DHT22;25176;51.060;3.720;2023-09-07T03:24:07;20.80;95.90
39493;DHT22;25176;51.060;3.720;2023-09-07T03:26:33;20.80;95.80
39493;DHT22;25176;51.060;3.720;2023-09-07T03:28:58;20.80;96.00
39493;DHT22;25176;51.060;3.720;2023-09-07T03:31:24;20.70;96.00
39493;DHT22;25176;51.060;3.720;2023-09-07T03:33:49;20.70;96.10
39493;DHT22;25176;51.060;3.720;2023-09-07T03:36:15;20.70;96.40
39493;DHT22;25176;51.060;3.720;2023-09-07T03:38:41;20.80;96.10
39493;DHT22;25176;51.060;3.720;2023-09-07T03:41:06;20.80;96.00
39493;DHT22;25176;51.060;3.720;2023-09-07T03:43:32;20.90;96.10
39493;DHT22;25176;51.060;3.720;2023-09-07T03:45:57;20.80;96.00
39493;DHT22;25176;51.060;3.720;2023-09-07T03:48:23;20.70;96.40
39493;DHT22;25176;51.060;3.720;2023-09-07T03:50:48;20.70;96.50
39493;DHT22;25176;51.060;3.720;2023-09-07T03:53:14;20.70;96.30
39493;DHT22;25176;51.060;3.720;2023-09-07T03:55:40;20.70;96.50
39493;DHT22;25176;51.060;3.720;2023-09-07T03:58:06;20.60;96.70
39493;DHT22;25176;51.060;3.720;2023-09-07T04:00:32;20.70;96.70
39493;DHT22;25176;51.060;3.720;2023-09-07T04:02:57;20.60;96.80
39493;DHT22;25176;51.060;3.720;2023-09-07T04:05:23;20.40;97.30
39493;DHT22;25176;51.060;3.720;2023-09-07T04:07:50;20.50;97.30
39493;DHT22;25176;51.060;3.720;2023-09-07T04:10:15;20.60;97.20
39493;DHT22;25176;51.060;3.720;2023-09-07T04:12:41;20.60;97.20
39493;DHT22;25176;51.060;3.720;2023-09-07T04:15:06;20.30;97.30
39493;DHT22;25176;51.060;3.720;2023-09-07T04:17:32;20.40;97.90
39493;DHT22;25176;51.060;3.720;2023-09-07T04:20:06;20.40;97.60
39493;DHT22;25176;51.060;3.720;2023-09-07T04:22:31;20.50;97.60
39493;DHT22;25176;51.060;3.720;2023-09-07T04:24:57;20.50;97.60
39493;DHT22;25176;51.060;3.720;2023-09-07T04:27:22;20.50;97.50
39493;DHT22;25176;51.060;3.720;2023-09-07T04:29:48;20.40;97.50
39493;DHT22;25176;51.060;3.720;2023-09-07T04:32:15;20.50;97.60
39493;DHT22;25176;51.060;3.720;2023-09-07T04:34:40;20.30;97.60
39493;DHT22;25176;51.060;3.720;2023-09-07T04:37:06;20.30;97.70
39493;DHT22;25176;51.060;3.720;2023-09-07T04:39:31;20.40;97.80
39493;DHT22;25176;51.060;3.720;2023-09-07T04:41:57;20.30;97.80
39493;DHT22;25176;51.060;3.720;2023-09-07T04:44:22;20.40;98.00
39493;DHT22;25176;51.060;3.720;2023-09-07T04:46:48;20.30;97.90
39493;DHT22;25176;51.060;3.720;2023-09-07T04:49:13;20.30;97.80
39493;DHT22;25176;51.060;3.720;2023-09-07T04:51:39;20.30;98.00
39493;DHT22;25176;51.060;3.720;2023-09-07T04:54:04;20.20;98.20
39493;DHT22;25176;51.060;3.720;2023-09-07T04:56:30;20.10;98.30
39493;DHT22;25176;51.060;3.720;2023-09-07T04:58:55;20.30;98.40
39493;DHT22;25176;51.060;3.720;2023-09-07T05:01:21;20.40;98.10
39493;DHT22;25176;51.060;3.720;2023-09-07T05:03:46;20.30;97.90
39493;DHT22;25176;51.060;3.720;2023-09-07T05:06:12;20.50;98.10
39493;DHT22;25176;51.060;3.720;2023-09-07T05:08:38;20.60;97.80
39493;DHT22;25176;51.060;3.720;2023-09-07T05:11:04;20.60;97.50
39493;DHT22;25176;51.060;3.720;2023-09-07T05:13:30;20.60;97.50
39493;DHT22;25176;51.060;3.720;2023-09-07T05:15:56;20.60;97.40
39493;DHT22;25176;51.060;3.720;2023-09-07T05:18:21;20.50;97.30
39493;DHT22;25176;51.060;3.720;2023-09-07T05:20:47;20.60;97.40
39493;DHT22;25176;51.060;3.720;2023-09-07T05:23:21;20.60;97.20
39493;DHT22;25176;51.060;3.720;2023-09-07T05:25:47;20.60;97.30
39493;DHT22;25176;51.060;3.720;2023-09-07T05:28:13;20.60;96.90
39493;DHT22;25176;51.060;3.720;2023-09-07T05:30:39;20.40;97.10
39493;DHT22;25176;51.060;3.720;2023-09-07T05:33:04;20.40;97.70
39493;DHT22;25176;51.060;3.720;2023-09-07T05:35:30;20.40;97.40
39493;DHT22;25176;51.060;3.720;2023-09-07T05:37:58;20.40;97.30
39493;DHT22;25176;51.060;3.720;2023-09-07T05:40:23;20.40;97.50
39493;DHT22;25176;51.060;3.720;2023-09-07T05:42:49;20.50;97.20
39493;DHT22;25176;51.060;3.720;2023-09-07T05:45:14;20.60;97.20
39493;DHT22;25176;51.060;3.720;2023-09-07T05:47:40;20.50;97.10
39493;DHT22;25176;51.060;3.720;2023-09-07T05:50:06;20.40;97.20
39493;DHT22;25176;51.060;3.720;2023-09-07T05:52:31;20.30;97.70
39493;DHT22;25176;51.060;3.720;2023-09-07T05:54:57;20.30;97.60
39493;DHT22;25176;51.060;3.720;2023-09-07T05:57:23;20.40;97.70
39493;DHT22;25176;51.060;3.720;2023-09-07T05:59:48;20.50;97.40
39493;DHT22;25176;51.060;3.720;2023-09-07T06:02:14;20.40;97.20
39493;DHT22;25176;51.060;3.720;2023-09-07T06:04:40;20.40;97.40
39493;DHT22;25176;51.060;3.720;2023-09-07T06:07:05;20.50;97.20
39493;DHT22;25176;51.060;3.720;2023-09-07T06:09:31;20.40;97.00
39493;DHT22;25176;51.060;3.720;2023-09-07T06:11:57;20.30;97.40
39493;DHT22;25176;51.060;3.720;2023-09-07T06:14:22;20.30;97.40
39493;DHT22;25176;51.060;3.720;2023-09-07T06:16:48;20.30;97.50
39493;DHT22;25176;51.060;3.720;2023-09-07T06:19:17;20.30;97.20
39493;DHT22;25176;51.060;3.720;2023-09-07T06:21:43;20.30;97.10
39493;DHT22;25176;51.060;3.720;2023-09-07T06:24:09;20.30;97.10
39493;DHT22;25176;51.060;3.720;2023-09-07T06:26:35;20.30;97.40
39493;DHT22;25176;51.060;3.720;2023-09-07T06:29:01;20.40;97.40
39493;DHT22;25176;51.060;3.720;2023-09-07T06:31:31;20.40;97.10
39493;DHT22;25176;51.060;3.720;2023-09-07T06:33:57;20.40;97.20
39493;DHT22;25176;51.060;3.720;2023-09-07T06:36:24;20.50;97.10
39493;DHT22;25176;51.060;3.720;2023-09-07T06:38:50;20.60;96.80
39493;DHT22;25176;51.060;3.720;2023-09-07T06:41:15;20.50;96.60
39493;DHT22;25176;51.060;3.720;2023-09-07T06:43:41;20.40;96.80
39493;DHT22;25176;51.060;3.720;2023-09-07T06:46:07;20.40;97.00
39493;DHT22;25176;51.060;3.720;2023-09-07T06:48:33;20.30;97.10
39493;DHT22;25176;51.060;3.720;2023-09-07T06:51:02;20.30;97.10
39493;DHT22;25176;51.060;3.720;2023-09-07T06:53:28;20.40;97.00
39493;DHT22;25176;51.060;3.720;2023-09-07T06:55:58;20.40;97.10
39493;DHT22;25176;51.060;3.720;2023-09-07T06:58:26;20.50;97.10
39493;DHT22;25176;51.060;3.720;2023-09-07T07:00:56;20.50;96.90
39493;DHT22;25176;51.060;3.720;2023-09-07T07:03:22;20.60;96.90
39493;DHT22;25176;51.060;3.720;2023-09-07T07:05:49;20.70;96.50
39493;DHT22;25176;51.060;3.720;2023-09-07T07:08:15;20.80;96.40
39493;DHT22;25176;51.060;3.720;2023-09-07T07:10:40;21.00;96.30
39493;DHT22;25176;51.060;3.720;2023-09-07T07:13:07;21.10;96.10
39493;DHT22;25176;51.060;3.720;2023-09-07T07:15:32;21.30;95.80
39493;DHT22;25176;51.060;3.720;2023-09-07T07:18:00;21.40;95.40
39493;DHT22;25176;51.060;3.720;2023-09-07T07:20:26;21.60;95.10
39493;DHT22;25176;51.060;3.720;2023-09-07T07:22:51;21.60;94.90
39493;DHT22;25176;51.060;3.720;2023-09-07T07:25:17;21.60;94.60
39493;DHT22;25176;51.060;3.720;2023-09-07T07:27:43;21.70;94.60
39493;DHT22;25176;51.060;3.720;2023-09-07T07:30:08;21.70;94.50
39493;DHT22;25176;51.060;3.720;2023-09-07T07:32:34;21.80;94.40
39493;DHT22;25176;51.060;3.720;2023-09-07T07:35:00;21.90;94.20
39493;DHT22;25176;51.060;3.720;2023-09-07T07:37:25;22.70;93.60
39493;DHT22;25176;51.060;3.720;2023-09-07T07:39:51;25.10;91.60
39493;DHT22;25176;51.060;3.720;2023-09-07T07:42:17;27.80;83.10
39493;DHT22;25176;51.060;3.720;2023-09-07T07:44:43;28.40;78.60
39493;DHT22;25176;51.060;3.720;2023-09-07T07:47:09;29.90;74.50
39493;DHT22;25176;51.060;3.720;2023-09-07T07:49:35;32.00;69.80
39493;DHT22;25176;51.060;3.720;2023-09-07T07:52:01;30.60;69.10
39493;DHT22;25176;51.060;3.720;2023-09-07T07:54:26;32.80;65.30
39493;DHT22;25176;51.060;3.720;2023-09-07T07:56:53;33.80;62.90
39493;DHT22;25176;51.060;3.720;2023-09-07T07:59:19;33.20;61.60
39493;DHT22;25176;51.060;3.720;2023-09-07T08:01:45;33.90;61.50
39493;DHT22;25176;51.060;3.720;2023-09-07T08:04:10;34.40;59.40
39493;DHT22;25176;51.060;3.720;2023-09-07T08:06:36;35.80;58.20
39493;DHT22;25176;51.060;3.720;2023-09-07T08:09:02;35.40;57.90
39493;DHT22;25176;51.060;3.720;2023-09-07T08:11:28;35.20;57.30
39493;DHT22;25176;51.060;3.720;2023-09-07T08:13:54;37.80;56.00
39493;DHT22;25176;51.060;3.720;2023-09-07T08:16:20;39.80;53.00
39493;DHT22;25176;51.060;3.720;2023-09-07T08:18:46;40.20;51.10
39493;DHT22;25176;51.060;3.720;2023-09-07T08:21:13;38.30;52.60
39493;DHT22;25176;51.060;3.720;2023-09-07T08:23:39;39.20;50.90
39493;DHT22;25176;51.060;3.720;2023-09-07T08:26:04;39.00;51.10
39493;DHT22;25176;51.060;3.720;2023-09-07T08:28:30;38.20;51.30
39493;DHT22;25176;51.060;3.720;2023-09-07T08:30:57;38.00;52.00
39493;DHT22;25176;51.060;3.720;2023-09-07T08:33:24;38.50;51.40
39493;DHT22;25176;51.060;3.720;2023-09-07T08:35:57;39.00;50.50
39493;DHT22;25176;51.060;3.720;2023-09-07T08:38:22;40.00;50.70
39493;DHT22;25176;51.060;3.720;2023-09-07T08:40:53;42.70;48.50
39493;DHT22;25176;51.060;3.720;2023-09-07T08:43:19;44.40;46.90
39493;DHT22;25176;51.060;3.720;2023-09-07T08:45:48;43.90;46.40
39493;DHT22;25176;51.060;3.720;2023-09-07T08:48:15;43.40;46.10
39493;DHT22;25176;51.060;3.720;2023-09-07T08:50:42;45.10;46.10
39493;DHT22;25176;51.060;3.720;2023-09-07T08:53:16;44.30;44.90
39493;DHT22;25176;51.060;3.720;2023-09-07T08:55:42;42.90;46.20
39493;DHT22;25176;51.060;3.720;2023-09-07T08:58:07;44.50;45.70
39493;DHT22;25176;51.060;3.720;2023-09-07T09:00:33;40.60;47.10
39493;DHT22;25176;51.060;3.720;2023-09-07T09:02:58;38.80;48.60
39493;DHT22;25176;51.060;3.720;2023-09-07T09:05:24;40.10;48.50
39493;DHT22;25176;51.060;3.720;2023-09-07T09:08:03;39.30;49.30
39493;DHT22;25176;51.060;3.720;2023-09-07T09:10:32;41.30;47.40
39493;DHT22;25176;51.060;3.720;2023-09-07T09:12:58;43.10;46.10
39493;DHT22;25176;51.060;3.720;2023-09-07T09:15:27;40.80;47.20
39493;DHT22;25176;51.060;3.720;2023-09-07T09:17:53;43.90;46.60
39493;DHT22;25176;51.060;3.720;2023-09-07T09:20:24;45.20;45.30
39493;DHT22;25176;51.060;3.720;2023-09-07T09:22:52;45.90;44.20
39493;DHT22;25176;51.060;3.720;2023-09-07T09:25:18;45.70;43.50
39493;DHT22;25176;51.060;3.720;2023-09-07T09:27:43;46.10;44.30
39493;DHT22;25176;51.060;3.720;2023-09-07T09:30:10;45.70;43.50
39493;DHT22;25176;51.060;3.720;2023-09-07T09:32:35;46.90;43.80
39493;DHT22;25176;51.060;3.720;2023-09-07T09:35:02;47.20;43.40
39493;DHT22;25176;51.060;3.720;2023-09-07T09:37:28;47.40;43.20
39493;DHT22;25176;51.060;3.720;2023-09-07T09:39:54;43.20;44.30
39493;DHT22;25176;51.060;3.720;2023-09-07T09:42:20;44.90;44.00
39493;DHT22;25176;51.060;3.720;2023-09-07T09:44:47;47.40;43.00
39493;DHT22;25176;51.060;3.720;2023-09-07T09:47:14;49.50;41.90
39493;DHT22;25176;51.060;3.720;2023-09-07T09:49:41;48.70;41.10
39493;DHT22;25176;51.060;3.720;2023-09-07T09:52:06;47.40;42.10
39493;DHT22;25176;51.060;3.720;2023-09-07T09:54:34;48.20;42.10
39493;DHT22;25176;51.060;3.720;2023-09-07T10:00:07;49.00;41.40
39493;DHT22;25176;51.060;3.720;2023-09-07T10:05:46;48.00;41.80
39493;DHT22;25176;51.060;3.720;2023-09-07T10:08:12;46.00;42.60
39493;DHT22;25176;51.060;3.720;2023-09-07T10:10:40;44.50;43.80
39493;DHT22;25176;51.060;3.720;2023-09-07T10:13:06;46.30;42.60
39493;DHT22;25176;51.060;3.720;2023-09-07T10:15:32;44.90;43.80
39493;DHT22;25176;51.060;3.720;2023-09-07T10:18:08;46.30;43.20
39493;DHT22;25176;51.060;3.720;2023-09-07T10:20:35;46.50;42.80
39493;DHT22;25176;51.060;3.720;2023-09-07T10:23:14;46.20;42.90
39493;DHT22;25176;51.060;3.720;2023-09-07T10:25:39;47.50;42.00
39493;DHT22;25176;51.060;3.720;2023-09-07T10:28:05;44.60;43.40
39493;DHT22;25176;51.060;3.720;2023-09-07T10:30:31;44.60;43.90
39493;DHT22;25176;51.060;3.720;2023-09-07T10:32:58;43.40;44.80
39493;DHT22;25176;51.060;3.720;2023-09-07T10:35:24;42.10;45.60
39493;DHT22;25176;51.060;3.720;2023-09-07T10:37:51;40.50;46.80
39493;DHT22;25176;51.060;3.720;2023-09-07T10:40:20;39.40;47.20
39493;DHT22;25176;51.060;3.720;2023-09-07T10:42:46;38.50;49.30
39493;DHT22;25176;51.060;3.720;2023-09-07T10:45:13;38.70;48.90
39493;DHT22;25176;51.060;3.720;2023-09-07T10:47:42;39.10;48.50
39493;DHT22;25176;51.060;3.720;2023-09-07T10:50:09;38.30;48.80
39493;DHT22;25176;51.060;3.720;2023-09-07T10:52:35;36.90;51.10
39493;DHT22;25176;51.060;3.720;2023-09-07T10:55:01;36.70;50.70
39493;DHT22;25176;51.060;3.720;2023-09-07T10:57:27;34.10;54.30
39493;DHT22;25176;51.060;3.720;2023-09-07T10:59:53;32.90;56.50
39493;DHT22;25176;51.060;3.720;2023-09-07T11:02:20;31.90;57.60
39493;DHT22;25176;51.060;3.720;2023-09-07T11:04:46;31.30;59.20
39493;DHT22;25176;51.060;3.720;2023-09-07T11:07:11;30.70;61.10
39493;DHT22;25176;51.060;3.720;2023-09-07T11:09:43;30.70;61.10
39493;DHT22;25176;51.060;3.720;2023-09-07T11:12:12;30.50;61.50
39493;DHT22;25176;51.060;3.720;2023-09-07T11:14:38;30.50;61.70
39493;DHT22;25176;51.060;3.720;2023-09-07T11:17:04;29.70;63.60
39493;DHT22;25176;51.060;3.720;2023-09-07T11:19:33;29.30;64.60
39493;DHT22;25176;51.060;3.720;2023-09-07T11:21:59;29.20;65.10
39493;DHT22;25176;51.060;3.720;2023-09-07T11:24:24;29.20;64.90
39493;DHT22;25176;51.060;3.720;2023-09-07T11:26:51;29.00;65.50
39493;DHT22;25176;51.060;3.720;2023-09-07T11:29:17;29.00;65.70
39493;DHT22;25176;51.060;3.720;2023-09-07T11:31:44;29.00;65.80
39493;DHT22;25176;51.060;3.720;2023-09-07T11:34:12;29.20;65.40
39493;DHT22;25176;51.060;3.720;2023-09-07T11:36:39;29.30;65.20
39493;DHT22;25176;51.060;3.720;2023-09-07T11:39:04;29.10;65.90
39493;DHT22;25176;51.060;3.720;2023-09-07T11:41:38;29.00;66.70
39493;DHT22;25176;51.060;3.720;2023-09-07T11:44:04;29.10;66.00
39493;DHT22;25176;51.060;3.720;2023-09-07T11:46:29;29.10;65.60
39493;DHT22;25176;51.060;3.720;2023-09-07T11:48:55;29.00;65.90
39493;DHT22;25176;51.060;3.720;2023-09-07T11:51:21;29.20;65.60
39493;DHT22;25176;51.060;3.720;2023-09-07T11:53:47;28.90;65.70
39493;DHT22;25176;51.060;3.720;2023-09-07T11:56:12;29.10;65.80
39493;DHT22;25176;51.060;3.720;2023-09-07T11:58:38;28.90;66.50
39493;DHT22;25176;51.060;3.720;2023-09-07T12:01:03;28.90;66.00
39493;DHT22;25176;51.060;3.720;2023-09-07T12:03:29;28.70;66.50
39493;DHT22;25176;51.060;3.720;2023-09-07T12:05:55;28.60;66.60
39493;DHT22;25176;51.060;3.720;2023-09-07T12:08:21;28.80;66.60
39493;DHT22;25176;51.060;3.720;2023-09-07T12:10:46;28.70;66.40
39493;DHT22;25176;51.060;3.720;2023-09-07T12:13:12;28.50;66.30
39493;DHT22;25176;51.060;3.720;2023-09-07T12:15:37;28.50;66.60
39493;DHT22;25176;51.060;3.720;2023-09-07T12:18:03;28.70;66.20
39493;DHT22;25176;51.060;3.720;2023-09-07T12:20:29;28.80;65.50
39493;DHT22;25176;51.060;3.720;2023-09-07T12:22:54;28.80;65.20
39493;DHT22;25176;51.060;3.720;2023-09-07T12:25:20;28.80;65.00
39493;DHT22;25176;51.060;3.720;2023-09-07T12:27:46;28.90;65.60
39493;DHT22;25176;51.060;3.720;2023-09-07T12:30:15;29.00;65.50
39493;DHT22;25176;51.060;3.720;2023-09-07T12:32:43;29.00;64.70
39493;DHT22;25176;51.060;3.720;2023-09-07T12:35:09;28.80;64.70
39493;DHT22;25176;51.060;3.720;2023-09-07T12:37:35;28.80;64.70
39493;DHT22;25176;51.060;3.720;2023-09-07T12:40:02;28.80;64.10
39493;DHT22;25176;51.060;3.720;2023-09-07T12:42:34;28.70;64.10
39493;DHT22;25176;51.060;3.720;2023-09-07T12:44:59;28.80;62.80
39493;DHT22;25176;51.060;3.720;2023-09-07T12:47:24;29.00;63.80
39493;DHT22;25176;51.060;3.720;2023-09-07T12:49:50;29.10;63.10
39493;DHT22;25176;51.060;3.720;2023-09-07T12:52:15;29.10;62.70
39493;DHT22;25176;51.060;3.720;2023-09-07T12:54:41;29.20;63.10
39493;DHT22;25176;51.060;3.720;2023-09-07T12:57:07;29.10;62.70
39493;DHT22;25176;51.060;3.720;2023-09-07T12:59:32;29.00;62.90
39493;DHT22;25176;51.060;3.720;2023-09-07T13:01:58;29.00;63.90
39493;DHT22;25176;51.060;3.720;2023-09-07T13:04:23;29.00;63.70
39493;DHT22;25176;51.060;3.720;2023-09-07T13:06:49;29.00;61.90
39493;DHT22;25176;51.060;3.720;2023-09-07T13:09:15;29.00;61.40
39493;DHT22;25176;51.060;3.720;2023-09-07T13:11:41;29.10;62.50
39493;DHT22;25176;51.060;3.720;2023-09-07T13:14:06;29.00;61.60
39493;DHT22;25176;51.060;3.720;2023-09-07T13:16:33;29.00;61.90
39493;DHT22;25176;51.060;3.720;2023-09-07T13:21:59;29.10;61.90
39493;DHT22;25176;51.060;3.720;2023-09-07T13:24:25;29.00;61.70
39493;DHT22;25176;51.060;3.720;2023-09-07T13:26:54;29.00;61.60
39493;DHT22;25176;51.060;3.720;2023-09-07T13:29:21;29.00;62.10
39493;DHT22;25176;51.060;3.720;2023-09-07T13:31:46;29.20;62.40
39493;DHT22;25176;51.060;3.720;2023-09-07T13:34:12;29.20;61.70
39493;DHT22;25176;51.060;3.720;2023-09-07T13:36:37;29.20;62.20
39493;DHT22;25176;51.060;3.720;2023-09-07T13:39:03;29.20;61.90
39493;DHT22;25176;51.060;3.720;2023-09-07T13:41:29;29.30;62.10
39493;DHT22;25176;51.060;3.720;2023-09-07T13:43:55;29.30;61.90
39493;DHT22;25176;51.060;3.720;2023-09-07T13:46:22;29.20;62.40
39493;DHT22;25176;51.060;3.720;2023-09-07T13:48:48;29.20;62.80
39493;DHT22;25176;51.060;3.720;2023-09-07T13:51:14;29.30;62.70
39493;DHT22;25176;51.060;3.720;2023-09-07T13:53:39;29.30;62.90
39493;DHT22;25176;51.060;3.720;2023-09-07T13:56:05;29.40;62.10
39493;DHT22;25176;51.060;3.720;2023-09-07T13:58:30;29.20;62.70
39493;DHT22;25176;51.060;3.720;2023-09-07T14:00:56;29.30;62.60
39493;DHT22;25176;51.060;3.720;2023-09-07T14:03:21;29.30;62.60
39493;DHT22;25176;51.060;3.720;2023-09-07T14:05:47;29.30;62.60
39493;DHT22;25176;51.060;3.720;2023-09-07T14:08:12;29.30;62.70
39493;DHT22;25176;51.060;3.720;2023-09-07T14:10:38;29.20;63.20
39493;DHT22;25176;51.060;3.720;2023-09-07T14:13:04;29.10;63.40
39493;DHT22;25176;51.060;3.720;2023-09-07T14:15:30;29.10;63.00
39493;DHT22;25176;51.060;3.720;2023-09-07T14:17:58;29.10;63.10
39493;DHT22;25176;51.060;3.720;2023-09-07T14:20:24;29.20;63.50
39493;DHT22;25176;51.060;3.720;2023-09-07T14:22:49;29.20;63.60
39493;DHT22;25176;51.060;3.720;2023-09-07T14:25:15;29.20;63.40
39493;DHT22;25176;51.060;3.720;2023-09-07T14:27:41;29.20;62.90
39493;DHT22;25176;51.060;3.720;2023-09-07T14:30:07;29.10;63.50
39493;DHT22;25176;51.060;3.720;2023-09-07T14:32:33;29.10;63.60
39493;DHT22;25176;51.060;3.720;2023-09-07T14:34:59;29.00;63.70
39493;DHT22;25176;51.060;3.720;2023-09-07T14:37:24;29.30;63.70
39493;DHT22;25176;51.060;3.720;2023-09-07T14:39:50;29.30;63.90
39493;DHT22;25176;51.060;3.720;2023-09-07T14:42:16;29.40;63.50
39493;DHT22;25176;51.060;3.720;2023-09-07T14:44:44;29.20;63.60
39493;DHT22;25176;51.060;3.720;2023-09-07T14:47:10;29.20;63.90
39493;DHT22;25176;51.060;3.720;2023-09-07T14:49:36;29.20;63.80
39493;DHT22;25176;51.060;3.720;2023-09-07T14:52:02;29.10;63.60
39493;DHT22;25176;51.060;3.720;2023-09-07T14:54:27;29.20;62.60
39493;DHT22;25176;51.060;3.720;2023-09-07T14:56:53;29.20;62.10
39493;DHT22;25176;51.060;3.720;2023-09-07T14:59:18;29.30;62.40
39493;DHT22;25176;51.060;3.720;2023-09-07T15:01:44;29.50;62.50
39493;DHT22;25176;51.060;3.720;2023-09-07T15:04:10;29.40;62.40
39493;DHT22;25176;51.060;3.720;2023-09-07T15:06:35;29.40;62.50
39493;DHT22;25176;51.060;3.720;2023-09-07T15:09:02;29.40;61.60
39493;DHT22;25176;51.060;3.720;2023-09-07T15:11:29;29.50;61.60
39493;DHT22;25176;51.060;3.720;2023-09-07T15:13:55;29.50;61.70
39493;DHT22;25176;51.060;3.720;2023-09-07T15:16:21;29.40;61.60
39493;DHT22;25176;51.060;3.720;2023-09-07T15:18:47;29.40;60.70
39493;DHT22;25176;51.060;3.720;2023-09-07T15:21:12;29.30;61.00
39493;DHT22;25176;51.060;3.720;2023-09-07T15:23:38;29.40;60.70
39493;DHT22;25176;51.060;3.720;2023-09-07T15:26:04;29.30;60.40
39493;DHT22;25176;51.060;3.720;2023-09-07T15:28:29;29.30;60.70
39493;DHT22;25176;51.060;3.720;2023-09-07T15:30:54;29.30;60.70
39493;DHT22;25176;51.060;3.720;2023-09-07T15:33:20;29.30;61.00